Time;durP1;ratioP1;P1;durP2;ratioP2;P2;SDS_P1;SDS_P2;PMS_P1;PMS_P2;Temp;Humidity;BMP_temperature;BMP_pressure;BME280_temperature;BME280_humidity;BME280_pressure;Samples;Min_cycle;Max_cycle;Signal;HPM_P1;HPM_P2
2022/11/16 00:02:15;;;;;;;;;;;10.50;99.90;;;;;;5090051;28;1101;-67
2022/11/16 00:04:41;;;;;;;;;;;10.50;99.90;;;;;;5089402;28;989;-68
2022/11/16 00:07:07;;;;;;;;;;;10.50;99.90;;;;;;5071613;28;1164;-68
2022/11/16 00:09:33;;;;;;;;;;;10.50;99.90;;;;;;5089594;28;1104;-68
2022/11/16 00:12:00;;;;;;;;;;;10.50;99.90;;;;;;5089345;28;1919;-68
2022/11/16 00:14:27;;;;;;;;;;;10.50;99.90;;;;;;5089664;28;1108;-68
2022/11/16 00:16:53;;;;;;;;;;;10.50;99.90;;;;;;5089951;28;1434;-68
2022/11/16 00:19:18;;;;;;;;;;;10.50;99.90;;;;;;5088682;28;1128;-68
2022/11/16 00:21:44;;;;;;;;;;;10.50;99.90;;;;;;5071143;28;1296;-68
2022/11/16 00:24:11;;;;;;;;;;;10.50;99.90;;;;;;5071715;28;1168;-68
2022/11/16 00:26:37;;;;;;;;;;;10.50;99.90;;;;;;5088538;28;1116;-68
2022/11/16 00:29:03;;;;;;;;;;;10.60;99.90;;;;;;5089558;28;1025;-68
2022/11/16 00:31:28;;;;;;;;;;;10.60;99.90;;;;;;5089682;28;1976;-68
2022/11/16 00:33:54;;;;;;;;;;;10.50;99.90;;;;;;5070962;28;1179;-68
2022/11/16 00:36:20;;;;;;;;;;;10.60;99.90;;;;;;5079525;28;1832;-68
2022/11/16 00:38:46;;;;;;;;;;;10.60;99.90;;;;;;5089449;28;1135;-68
2022/11/16 00:41:12;;;;;;;;;;;10.60;99.90;;;;;;5070857;28;1093;-68
2022/11/16 00:43:38;;;;;;;;;;;10.60;99.90;;;;;;5070524;28;1129;-68
2022/11/16 00:46:04;;;;;;;;;;;10.60;99.90;;;;;;5077449;28;1199;-68
2022/11/16 00:48:29;;;;;;;;;;;10.60;99.90;;;;;;5071207;28;1236;-68
2022/11/16 00:50:55;;;;;;;;;;;10.60;99.90;;;;;;5088716;28;1971;-68
2022/11/16 00:53:22;;;;;;;;;;;10.60;99.90;;;;;;5088266;28;1604;-67
2022/11/16 00:55:47;;;;;;;;;;;10.60;99.90;;;;;;5071290;28;1089;-68
2022/11/16 00:58:15;;;;;;;;;;;10.60;99.90;;;;;;5034869;28;1094;-68
2022/11/16 01:00:43;;;;;;;;;;;10.60;99.90;;;;;;5047785;28;1094;-68
2022/11/16 01:03:09;;;;;;;;;;;10.60;99.90;;;;;;5070626;28;1147;-68
2022/11/16 01:05:34;;;;;;;;;;;10.60;99.90;;;;;;5070872;28;1145;-68
2022/11/16 01:08:00;;;;;;;;;;;10.60;99.90;;;;;;5070435;28;1048;-68
2022/11/16 01:10:26;;;;;;;;;;;10.60;99.90;;;;;;5071002;28;1921;-68
2022/11/16 01:12:52;;;;;;;;;;;10.60;99.90;;;;;;5057209;28;1195;-68
2022/11/16 01:15:19;;;;;;;;;;;10.60;99.90;;;;;;5070708;28;1206;-68
2022/11/16 01:17:44;;;;;;;;;;;10.60;99.90;;;;;;5089272;28;1285;-68
2022/11/16 01:20:12;;;;;;;;;;;10.60;99.90;;;;;;5088566;28;1143;-68
2022/11/16 01:22:38;;;;;;;;;;;10.60;99.90;;;;;;5076771;28;1557;-68
2022/11/16 01:25:05;;;;;;;;;;;10.70;99.90;;;;;;5089186;28;1116;-68
2022/11/16 01:27:31;;;;;;;;;;;10.70;99.90;;;;;;5088702;28;1171;-68
2022/11/16 01:29:58;;;;;;;;;;;10.60;99.90;;;;;;5074175;28;1091;-68
2022/11/16 01:32:25;;;;;;;;;;;10.70;99.90;;;;;;5070735;28;1984;-68
2022/11/16 01:34:51;;;;;;;;;;;10.70;99.90;;;;;;5053395;28;1292;-68
2022/11/16 01:37:26;;;;;;;;;;;10.70;99.90;;;;;;5055307;28;1157;-68
2022/11/16 01:39:52;;;;;;;;;;;10.80;99.90;;;;;;5059069;28;1097;-68
2022/11/16 01:42:20;;;;;;;;;;;10.80;99.90;;;;;;5070033;28;1152;-68
2022/11/16 01:44:48;;;;;;;;;;;10.80;99.90;;;;;;5053781;28;1145;-68
2022/11/16 01:47:17;;;;;;;;;;;10.80;99.90;;;;;;5050646;28;1147;-68
2022/11/16 01:49:46;;;;;;;;;;;10.80;99.90;;;;;;5071019;28;1272;-69
2022/11/16 01:52:16;;;;;;;;;;;10.80;99.90;;;;;;5074461;28;1967;-68
2022/11/16 01:54:44;;;;;;;;;;;10.80;99.90;;;;;;5074166;28;1118;-68
2022/11/16 01:57:12;;;;;;;;;;;10.80;99.90;;;;;;5073233;28;1440;-68
2022/11/16 01:59:43;;;;;;;;;;;10.80;99.90;;;;;;5074128;28;1097;-68
2022/11/16 02:02:14;;;;;;;;;;;10.90;99.90;;;;;;5074215;28;1113;-68
2022/11/16 02:04:40;;;;;;;;;;;10.90;99.90;;;;;;5056156;28;1165;-68
2022/11/16 02:07:14;;;;;;;;;;;10.90;99.90;;;;;;5079382;28;1157;-68
2022/11/16 02:09:54;;;;;;;;;;;10.90;99.90;;;;;;5057807;28;1132;-68
2022/11/16 02:12:24;;;;;;;;;;;10.90;99.90;;;;;;5072646;28;1918;-68
2022/11/16 02:15:01;;;;;;;;;;;10.90;99.90;;;;;;5057627;28;1117;-68
2022/11/16 02:17:31;;;;;;;;;;;10.90;99.90;;;;;;5064989;28;1372;-68
2022/11/16 02:20:13;;;;;;;;;;;10.90;99.90;;;;;;5057270;28;1169;-68
2022/11/16 02:22:58;;;;;;;;;;;10.90;99.90;;;;;;5080274;28;1581;-68
2022/11/16 02:25:23;;;;;;;;;;;10.90;99.90;;;;;;5073426;28;1101;-68
2022/11/16 02:28:10;;;;;;;;;;;10.80;99.90;;;;;;5091717;28;1155;-68
2022/11/16 02:30:39;;;;;;;;;;;10.90;99.90;;;;;;5074812;28;1906;-68
2022/11/16 02:33:08;;;;;;;;;;;10.90;99.90;;;;;;5072962;28;1138;-68
2022/11/16 02:35:37;;;;;;;;;;;10.80;99.90;;;;;;5073410;28;1176;-67
2022/11/16 02:38:09;;;;;;;;;;;10.80;99.90;;;;;;5073431;28;1050;-68
2022/11/16 02:40:38;;;;;;;;;;;10.80;99.90;;;;;;5080964;28;1139;-68
2022/11/16 02:43:08;;;;;;;;;;;10.80;99.90;;;;;;5073306;28;1160;-68
2022/11/16 02:45:37;;;;;;;;;;;10.80;99.90;;;;;;5073235;28;1172;-68
2022/11/16 02:48:07;;;;;;;;;;;10.80;99.90;;;;;;5090446;28;1196;-68
2022/11/16 02:50:34;;;;;;;;;;;10.80;99.90;;;;;;5073198;28;1918;-68
2022/11/16 02:52:59;;;;;;;;;;;10.80;99.90;;;;;;5072476;28;1166;-68
2022/11/16 02:55:29;;;;;;;;;;;10.80;99.90;;;;;;5053727;28;1114;-67
2022/11/16 02:57:57;;;;;;;;;;;10.70;99.90;;;;;;5090837;28;1104;-68
2022/11/16 03:00:29;;;;;;;;;;;10.70;99.90;;;;;;5071842;28;1163;-68
2022/11/16 03:02:56;;;;;;;;;;;10.70;99.90;;;;;;5056101;28;1161;-68
2022/11/16 03:05:30;;;;;;;;;;;10.70;99.90;;;;;;5072699;28;1033;-68
2022/11/16 03:08:08;;;;;;;;;;;10.70;99.90;;;;;;5072358;28;1170;-67
2022/11/16 03:13:22;;;;;;;;;;;10.70;99.90;;;;;;5091305;28;1128;-68
2022/11/16 03:15:49;;;;;;;;;;;10.70;99.90;;;;;;5082463;28;1318;-68
2022/11/16 03:18:15;;;;;;;;;;;10.70;99.90;;;;;;5063947;28;1040;-67
2022/11/16 03:20:42;;;;;;;;;;;10.70;99.90;;;;;;5071026;28;1347;-68
2022/11/16 03:23:10;;;;;;;;;;;10.70;99.90;;;;;;5062619;28;1098;-67
2022/11/16 03:25:48;;;;;;;;;;;10.60;99.90;;;;;;5055612;28;1260;-68
2022/11/16 03:28:18;;;;;;;;;;;10.70;99.90;;;;;;5072244;28;1098;-68
2022/11/16 03:30:50;;;;;;;;;;;10.60;99.90;;;;;;5072781;28;1914;-67
2022/11/16 03:33:22;;;;;;;;;;;10.60;99.90;;;;;;5081194;28;1094;-67
2022/11/16 03:36:08;;;;;;;;;;;10.60;99.90;;;;;;5089732;28;1159;-68
2022/11/16 03:38:35;;;;;;;;;;;10.60;99.90;;;;;;5072687;28;1089;-68
2022/11/16 03:41:04;;;;;;;;;;;10.70;99.90;;;;;;5072326;28;1157;-68
2022/11/16 03:43:30;;;;;;;;;;;10.60;99.90;;;;;;5072600;28;1120;-68
2022/11/16 03:45:57;;;;;;;;;;;10.60;99.90;;;;;;5072450;28;1133;-68
2022/11/16 03:48:22;;;;;;;;;;;10.60;99.90;;;;;;5089410;28;1208;-68
2022/11/16 03:50:48;;;;;;;;;;;10.60;99.90;;;;;;5070788;28;1910;-68
2022/11/16 03:53:15;;;;;;;;;;;10.60;99.90;;;;;;5042778;28;1265;-67
2022/11/16 03:55:40;;;;;;;;;;;10.60;99.90;;;;;;5067931;28;1260;-68
2022/11/16 03:58:07;;;;;;;;;;;10.70;99.90;;;;;;5071677;28;1188;-68
2022/11/16 04:00:33;;;;;;;;;;;10.60;99.90;;;;;;5078318;28;1209;-67
2022/11/16 04:03:05;;;;;;;;;;;10.60;99.90;;;;;;5054346;28;1098;-67
2022/11/16 04:24:48;;;;;;;;;;;10.60;99.90;;;;;;5088989;28;1101;-67
2022/11/16 04:30:01;;;;;;;;;;;10.60;99.90;;;;;;5071746;28;1033;-67
2022/11/16 04:38:13;;;;;;;;;;;10.60;99.90;;;;;;5070437;28;1106;-67
2022/11/16 04:40:38;;;;;;;;;;;10.60;99.90;;;;;;5054367;28;1151;-67
2022/11/16 04:43:04;;;;;;;;;;;10.60;99.90;;;;;;5079726;28;1244;-68
2022/11/16 04:48:23;;;;;;;;;;;10.60;99.90;;;;;;5076275;28;1308;-67
2022/11/16 04:50:52;;;;;;;;;;;10.50;99.90;;;;;;5079476;28;2029;-67
2022/11/16 04:53:19;;;;;;;;;;;10.60;99.90;;;;;;5094787;28;1227;-67
2022/11/16 04:55:50;;;;;;;;;;;10.60;99.90;;;;;;5072340;28;1088;-67
2022/11/16 04:58:18;;;;;;;;;;;10.60;99.90;;;;;;5071213;28;1100;-67
2022/11/16 05:00:44;;;;;;;;;;;10.60;99.90;;;;;;5070120;28;1173;-67
2022/11/16 05:03:10;;;;;;;;;;;10.50;99.90;;;;;;5056370;28;1268;-67
2022/11/16 05:05:36;;;;;;;;;;;10.50;99.90;;;;;;5061816;28;1287;-67
2022/11/16 05:08:03;;;;;;;;;;;10.50;99.90;;;;;;5076586;28;1232;-67
2022/11/16 05:10:30;;;;;;;;;;;10.50;99.90;;;;;;5063391;28;1917;-67
2022/11/16 05:12:56;;;;;;;;;;;10.50;99.90;;;;;;5089162;28;1171;-67
2022/11/16 05:15:23;;;;;;;;;;;10.50;99.90;;;;;;5070648;28;1145;-67
2022/11/16 05:17:50;;;;;;;;;;;10.50;99.90;;;;;;5070490;28;1615;-67
2022/11/16 05:23:04;;;;;;;;;;;10.50;99.90;;;;;;5045516;28;1242;-67
2022/11/16 05:25:33;;;;;;;;;;;10.50;99.90;;;;;;5074602;28;1156;-67
2022/11/16 05:28:00;;;;;;;;;;;10.50;99.90;;;;;;5074103;28;1109;-67
2022/11/16 05:30:28;;;;;;;;;;;10.40;99.90;;;;;;5074594;28;1995;-68
2022/11/16 05:32:55;;;;;;;;;;;10.40;99.90;;;;;;5074767;28;1183;-67
2022/11/16 05:35:21;;;;;;;;;;;10.40;99.90;;;;;;5073964;28;1292;-68
2022/11/16 05:37:47;;;;;;;;;;;10.40;99.90;;;;;;5081312;28;1139;-67
2022/11/16 05:40:14;;;;;;;;;;;10.40;99.90;;;;;;5074301;28;1097;-68
2022/11/16 05:42:47;;;;;;;;;;;10.40;99.90;;;;;;5073617;28;1231;-67
2022/11/16 05:45:12;;;;;;;;;;;10.40;99.90;;;;;;5092259;28;1139;-67
2022/11/16 05:47:38;;;;;;;;;;;10.40;99.90;;;;;;5073596;28;1131;-68
2022/11/16 05:50:04;;;;;;;;;;;10.40;99.90;;;;;;5073276;28;1589;-68
2022/11/16 05:52:35;;;;;;;;;;;10.40;99.90;;;;;;5061622;28;1988;-67
2022/11/16 05:55:05;;;;;;;;;;;10.40;99.90;;;;;;5081217;28;1142;-68
2022/11/16 05:57:36;;;;;;;;;;;10.40;99.90;;;;;;5073513;28;1168;-68
2022/11/16 06:00:02;;;;;;;;;;;10.40;99.90;;;;;;5074478;28;1180;-68
2022/11/16 06:02:30;;;;;;;;;;;10.30;99.90;;;;;;5073428;28;1592;-68
2022/11/16 06:04:56;;;;;;;;;;;10.40;99.90;;;;;;5057415;28;1090;-68
2022/11/16 06:07:22;;;;;;;;;;;10.30;99.90;;;;;;5074441;28;1116;-68
2022/11/16 06:09:48;;;;;;;;;;;10.30;99.90;;;;;;5091405;28;1141;-68
2022/11/16 06:12:18;;;;;;;;;;;10.30;99.90;;;;;;5064390;28;1984;-68
2022/11/16 06:14:44;;;;;;;;;;;10.30;99.90;;;;;;5074400;28;1160;-68
2022/11/16 06:17:13;;;;;;;;;;;10.40;99.90;;;;;;5090892;28;1340;-68
2022/11/16 06:19:39;;;;;;;;;;;10.30;99.90;;;;;;5073922;28;1170;-68
2022/11/16 06:22:06;;;;;;;;;;;10.30;99.90;;;;;;5065203;28;1383;-68
2022/11/16 06:24:32;;;;;;;;;;;10.30;99.90;;;;;;5072781;28;1038;-68
2022/11/16 06:26:58;;;;;;;;;;;10.30;99.90;;;;;;5073760;28;1070;-68
2022/11/16 06:29:24;;;;;;;;;;;10.30;99.90;;;;;;5076416;28;1036;-68
2022/11/16 06:31:51;;;;;;;;;;;10.30;99.90;;;;;;5076782;28;1918;-67
2022/11/16 06:34:17;;;;;;;;;;;10.30;99.90;;;;;;5073066;28;1044;-68
2022/11/16 06:36:42;;;;;;;;;;;10.30;99.90;;;;;;5091412;28;974;-68
2022/11/16 06:39:10;;;;;;;;;;;10.40;99.90;;;;;;5090263;28;1039;-67
2022/11/16 06:41:36;;;;;;;;;;;10.30;99.90;;;;;;5073757;28;1156;-67
2022/11/16 06:44:02;;;;;;;;;;;10.30;99.90;;;;;;5073168;28;1109;-67
2022/11/16 06:46:32;;;;;;;;;;;10.30;99.90;;;;;;5071874;28;1287;-68
2022/11/16 06:48:58;;;;;;;;;;;10.40;99.90;;;;;;5073249;28;1491;-67
2022/11/16 06:51:24;;;;;;;;;;;10.40;99.90;;;;;;5069553;28;1910;-67
2022/11/16 06:53:51;;;;;;;;;;;10.40;99.90;;;;;;5062851;28;1157;-67
2022/11/16 06:56:18;;;;;;;;;;;10.40;99.90;;;;;;5061367;28;1101;-67
2022/11/16 06:58:50;;;;;;;;;;;10.40;99.90;;;;;;5072676;28;1113;-67
2022/11/16 07:01:16;;;;;;;;;;;10.40;99.90;;;;;;5072896;28;1184;-67
2022/11/16 07:03:44;;;;;;;;;;;10.40;99.90;;;;;;5073196;28;1113;-67
2022/11/16 07:06:11;;;;;;;;;;;10.40;99.90;;;;;;5067947;28;1181;-67
2022/11/16 07:08:38;;;;;;;;;;;10.40;99.90;;;;;;5056313;28;1996;-67
2022/11/16 07:11:05;;;;;;;;;;;10.50;99.90;;;;;;5056256;28;1973;-67
2022/11/16 07:13:32;;;;;;;;;;;10.40;99.90;;;;;;5073830;28;1113;-67
2022/11/16 07:16:03;;;;;;;;;;;10.80;99.90;;;;;;5072313;28;1339;-67
2022/11/16 07:18:31;;;;;;;;;;;10.40;99.90;;;;;;5096679;28;1125;-68
2022/11/16 07:20:56;;;;;;;;;;;10.40;99.90;;;;;;5106469;28;1377;-67
2022/11/16 07:23:22;;;;;;;;;;;10.40;99.90;;;;;;5090271;28;1178;-68
2022/11/16 07:25:49;;;;;;;;;;;10.50;99.90;;;;;;5072794;28;1198;-67
2022/11/16 07:28:26;;;;;;;;;;;10.50;99.90;;;;;;5071655;28;1276;-67
2022/11/16 07:30:55;;;;;;;;;;;10.50;99.90;;;;;;5071863;28;1898;-67
2022/11/16 07:33:27;;;;;;;;;;;10.50;99.90;;;;;;5072737;28;1169;-68
2022/11/16 07:36:10;;;;;;;;;;;10.60;99.90;;;;;;5071796;28;1532;-67
2022/11/16 07:38:36;;;;;;;;;;;10.60;99.90;;;;;;5072077;28;1121;-68
2022/11/16 07:41:03;;;;;;;;;;;10.60;99.90;;;;;;5089524;28;1186;-68
2022/11/16 07:43:34;;;;;;;;;;;10.60;99.90;;;;;;5072352;28;1113;-67
2022/11/16 07:46:17;;;;;;;;;;;10.60;99.90;;;;;;5071975;28;1184;-68
2022/11/16 07:48:43;;;;;;;;;;;10.60;99.90;;;;;;5087483;28;1260;-67
2022/11/16 07:51:15;;;;;;;;;;;10.60;99.90;;;;;;5089844;28;1910;-67
2022/11/16 07:53:51;;;;;;;;;;;10.60;99.90;;;;;;5072067;28;1109;-67
2022/11/16 07:56:16;;;;;;;;;;;10.70;99.90;;;;;;5089680;28;1130;-68
2022/11/16 07:58:44;;;;;;;;;;;10.70;99.90;;;;;;5074294;28;1142;-67
2022/11/16 08:01:13;;;;;;;;;;;10.60;99.90;;;;;;5071597;28;1101;-67
2022/11/16 08:03:40;;;;;;;;;;;10.60;99.90;;;;;;5071450;28;1109;-67
2022/11/16 08:06:09;;;;;;;;;;;10.60;99.90;;;;;;5071718;28;1039;-67
2022/11/16 08:08:35;;;;;;;;;;;10.60;99.90;;;;;;5089576;28;1124;-67
2022/11/16 08:11:01;;;;;;;;;;;10.60;99.90;;;;;;5071134;28;1914;-67
2022/11/16 08:13:30;;;;;;;;;;;10.60;99.90;;;;;;5090212;28;1139;-67
2022/11/16 08:16:00;;;;;;;;;;;10.60;99.90;;;;;;5074059;28;1383;-67
2022/11/16 08:18:27;;;;;;;;;;;10.60;99.90;;;;;;5063704;28;1056;-68
2022/11/16 08:20:53;;;;;;;;;;;10.60;99.90;;;;;;5071713;28;1391;-68
2022/11/16 08:23:19;;;;;;;;;;;10.60;99.90;;;;;;5070550;28;1101;-68
2022/11/16 08:25:45;;;;;;;;;;;10.60;99.90;;;;;;5088954;28;1284;-68
2022/11/16 08:28:13;;;;;;;;;;;10.60;99.90;;;;;;5071502;28;1113;-68
2022/11/16 08:30:39;;;;;;;;;;;10.60;99.90;;;;;;5070462;28;1983;-68
2022/11/16 08:33:08;;;;;;;;;;;10.60;99.90;;;;;;5070851;28;1109;-68
2022/11/16 08:35:35;;;;;;;;;;;10.60;99.90;;;;;;5089559;28;1086;-67
2022/11/16 08:38:01;;;;;;;;;;;10.60;99.90;;;;;;5070372;28;1149;-68
2022/11/16 08:40:27;;;;;;;;;;;10.60;99.90;;;;;;5071641;28;1101;-68
2022/11/16 08:42:55;;;;;;;;;;;10.60;99.90;;;;;;5080192;28;1113;-69
2022/11/16 08:45:22;;;;;;;;;;;10.60;99.90;;;;;;5088584;28;1112;-67
2022/11/16 08:47:48;;;;;;;;;;;10.60;99.90;;;;;;5069984;28;1303;-68
2022/11/16 08:50:14;;;;;;;;;;;10.60;99.90;;;;;;5070815;28;1247;-67
2022/11/16 08:52:41;;;;;;;;;;;10.60;99.90;;;;;;5082422;28;1910;-68
2022/11/16 08:55:07;;;;;;;;;;;10.60;99.90;;;;;;5089455;28;1020;-68
2022/11/16 08:57:33;;;;;;;;;;;10.60;99.90;;;;;;5070936;28;1101;-68
2022/11/16 09:00:04;;;;;;;;;;;10.60;99.90;;;;;;5069698;28;1169;-68
2022/11/16 09:02:29;;;;;;;;;;;10.70;99.90;;;;;;5089188;28;1072;-68
2022/11/16 09:04:56;;;;;;;;;;;10.70;99.90;;;;;;5071135;28;1141;-68
2022/11/16 09:07:21;;;;;;;;;;;10.70;99.90;;;;;;5088420;28;1151;-68
2022/11/16 09:09:47;;;;;;;;;;;10.70;99.90;;;;;;5088673;28;1056;-67
2022/11/16 09:12:13;;;;;;;;;;;10.70;99.90;;;;;;5075151;28;4412;-67
2022/11/16 09:14:38;;;;;;;;;;;10.70;99.90;;;;;;5073790;28;4726;-67
2022/11/16 09:17:04;;;;;;;;;;;10.70;99.90;;;;;;5082139;28;1197;-67
2022/11/16 09:19:30;;;;;;;;;;;10.80;99.90;;;;;;5083493;28;3701;-67
2022/11/16 09:21:55;;;;;;;;;;;10.70;99.90;;;;;;5088010;28;1308;-68
2022/11/16 09:24:21;;;;;;;;;;;10.70;99.90;;;;;;5070770;28;1131;-67
2022/11/16 09:26:47;;;;;;;;;;;10.80;99.90;;;;;;5087977;28;1167;-68
2022/11/16 09:29:13;;;;;;;;;;;10.80;99.90;;;;;;5091182;28;1096;-68
2022/11/16 09:31:39;;;;;;;;;;;10.80;99.90;;;;;;5074039;28;1922;-67
2022/11/16 09:34:05;;;;;;;;;;;10.80;99.90;;;;;;5101393;28;1054;-68
2022/11/16 09:36:31;;;;;;;;;;;10.80;99.90;;;;;;5090947;28;1145;-68
2022/11/16 09:38:57;;;;;;;;;;;10.80;99.90;;;;;;5089151;28;1084;-68
2022/11/16 09:41:26;;;;;;;;;;;10.80;99.90;;;;;;5093453;28;1097;-68
2022/11/16 09:44:00;;;;;;;;;;;10.90;99.90;;;;;;5094398;28;1278;-68
2022/11/16 09:46:27;;;;;;;;;;;10.90;99.90;;;;;;5092435;28;1112;-68
2022/11/16 09:48:56;;;;;;;;;;;10.90;99.90;;;;;;5088227;28;1601;-68
2022/11/16 09:51:23;;;;;;;;;;;11.00;99.90;;;;;;5088030;28;2242;-68
2022/11/16 09:53:56;;;;;;;;;;;11.00;99.90;;;;;;5088428;28;1182;-68
2022/11/16 09:56:24;;;;;;;;;;;11.10;99.90;;;;;;5088121;28;1171;-68
2022/11/16 09:58:50;;;;;;;;;;;11.10;99.90;;;;;;5088246;28;1128;-68
2022/11/16 10:01:26;;;;;;;;;;;11.10;99.90;;;;;;5088467;28;1199;-68
2022/11/16 10:03:54;;;;;;;;;;;11.20;99.90;;;;;;5087985;28;1105;-68
2022/11/16 10:06:21;;;;;;;;;;;11.30;99.90;;;;;;5088862;28;1081;-68
2022/11/16 10:08:50;;;;;;;;;;;11.30;99.90;;;;;;5069699;28;1125;-68
2022/11/16 10:11:15;;;;;;;;;;;11.40;99.90;;;;;;5082832;28;2007;-68
2022/11/16 10:13:59;;;;;;;;;;;11.50;99.90;;;;;;5073504;28;1101;-68
2022/11/16 10:16:30;;;;;;;;;;;11.50;99.90;;;;;;5091611;28;1269;-68
2022/11/16 10:19:02;;;;;;;;;;;11.60;99.90;;;;;;5073450;28;1129;-68
2022/11/16 10:21:31;;;;;;;;;;;11.60;99.90;;;;;;5083462;28;1454;-68
2022/11/16 10:24:03;;;;;;;;;;;11.70;99.90;;;;;;5107643;28;1121;-68
2022/11/16 10:26:34;;;;;;;;;;;11.80;99.90;;;;;;5106355;28;1087;-68
2022/11/16 10:28:59;;;;;;;;;;;11.80;99.90;;;;;;5098949;28;1134;-68
2022/11/16 10:31:42;;;;;;;;;;;11.80;99.90;;;;;;5099799;28;1953;-68
2022/11/16 10:34:13;;;;;;;;;;;11.80;99.90;;;;;;5080569;28;1265;-68
2022/11/16 10:36:38;;;;;;;;;;;11.80;99.90;;;;;;5091004;28;1179;-68
2022/11/16 10:39:10;;;;;;;;;;;11.80;99.90;;;;;;5102907;28;1278;-68
2022/11/16 10:41:39;;;;;;;;;;;11.90;99.90;;;;;;5095716;28;1076;-68
2022/11/16 10:44:09;;;;;;;;;;;11.90;99.90;;;;;;5088994;28;1053;-68
2022/11/16 10:46:37;;;;;;;;;;;12.00;99.90;;;;;;5099383;28;1252;-68
2022/11/16 10:49:02;;;;;;;;;;;12.10;99.90;;;;;;5099020;28;1319;-68
2022/11/16 10:51:28;;;;;;;;;;;12.10;99.90;;;;;;5090334;28;1921;-68
2022/11/16 10:53:54;;;;;;;;;;;12.20;99.90;;;;;;5073493;28;1148;-68
2022/11/16 10:56:22;;;;;;;;;;;12.20;99.90;;;;;;5091273;28;1174;-66
2022/11/16 10:58:57;;;;;;;;;;;12.20;99.90;;;;;;5090600;28;1123;-68
2022/11/16 11:01:29;;;;;;;;;;;12.20;99.90;;;;;;5091220;28;1112;-68
2022/11/16 11:03:55;;;;;;;;;;;12.20;99.90;;;;;;5090656;28;1092;-68
2022/11/16 11:06:24;;;;;;;;;;;12.10;99.90;;;;;;5081221;28;1113;-68
2022/11/16 11:08:50;;;;;;;;;;;12.10;99.90;;;;;;5077698;28;1251;-68
2022/11/16 11:14:13;;;;;;;;;;;12.10;99.90;;;;;;5090122;28;1142;-68
2022/11/16 11:16:40;;;;;;;;;;;12.20;99.90;;;;;;5090968;28;1142;-68
2022/11/16 11:19:26;;;;;;;;;;;12.20;99.90;;;;;;5086795;28;3325;-68
2022/11/16 11:21:58;;;;;;;;;;;12.30;99.90;;;;;;5089079;28;1316;-68
2022/11/16 11:24:24;;;;;;;;;;;12.30;99.90;;;;;;5090923;28;1085;-68
2022/11/16 11:26:53;;;;;;;;;;;12.30;99.90;;;;;;5090011;28;1294;-69
2022/11/16 11:29:30;;;;;;;;;;;12.40;99.90;;;;;;5091013;28;1136;-69
2022/11/16 11:31:59;;;;;;;;;;;12.50;99.90;;;;;;5090906;28;1926;-68
2022/11/16 11:34:28;;;;;;;;;;;12.50;99.90;;;;;;5089991;28;1124;-68
2022/11/16 11:36:57;;;;;;;;;;;12.60;99.90;;;;;;5072305;28;1089;-68
2022/11/16 11:39:22;;;;;;;;;;;12.60;99.90;;;;;;5090409;28;1096;-68
2022/11/16 11:42:00;;;;;;;;;;;12.60;99.90;;;;;;5089662;28;1085;-68
2022/11/16 11:44:31;;;;;;;;;;;12.60;99.90;;;;;;5087685;28;1243;-68
2022/11/16 11:47:03;;;;;;;;;;;12.60;99.90;;;;;;5090700;28;1088;-68
2022/11/16 11:49:30;;;;;;;;;;;12.60;99.90;;;;;;5057386;28;1335;-68
2022/11/16 11:51:58;;;;;;;;;;;12.60;99.90;;;;;;5090413;28;1961;-68
2022/11/16 11:54:28;;;;;;;;;;;12.60;99.90;;;;;;5089464;28;1167;-68
2022/11/16 11:56:53;;;;;;;;;;;12.50;99.90;;;;;;5089654;28;1100;-68
2022/11/16 11:59:20;;;;;;;;;;;12.50;99.90;;;;;;5090410;28;1096;-69
2022/11/16 12:01:50;;;;;;;;;;;12.50;99.90;;;;;;5089484;28;1163;-68
2022/11/16 12:04:16;;;;;;;;;;;12.70;99.90;;;;;;5089845;28;1166;-68
2022/11/16 12:06:47;;;;;;;;;;;12.90;99.90;;;;;;5081316;28;1138;-68
2022/11/16 12:09:30;;;;;;;;;;;13.10;99.90;;;;;;5086843;28;1128;-68
2022/11/16 12:12:02;;;;;;;;;;;13.20;99.90;;;;;;5089898;28;1984;-69
2022/11/16 12:14:34;;;;;;;;;;;13.50;99.90;;;;;;5089550;28;1167;-68
2022/11/16 12:17:00;;;;;;;;;;;13.70;99.90;;;;;;5088887;28;1297;-68
2022/11/16 12:19:32;;;;;;;;;;;13.80;99.90;;;;;;5070977;28;1161;-68
2022/11/16 12:21:58;;;;;;;;;;;13.90;99.90;;;;;;5070983;28;1387;-68
2022/11/16 12:24:35;;;;;;;;;;;13.90;99.90;;;;;;5088729;28;1146;-68
2022/11/16 12:27:12;;;;;;;;;;;13.80;99.90;;;;;;5089040;28;1175;-68
2022/11/16 12:29:38;;;;;;;;;;;13.90;99.90;;;;;;5088925;28;1044;-69
2022/11/16 12:32:13;;;;;;;;;;;14.00;99.90;;;;;;5095729;28;1971;-68
2022/11/16 12:34:39;;;;;;;;;;;14.00;99.90;;;;;;5063428;28;1114;-68
2022/11/16 12:37:10;;;;;;;;;;;14.40;99.90;;;;;;5088926;28;1124;-69
2022/11/16 12:39:41;;;;;;;;;;;14.70;99.90;;;;;;5071594;28;1164;-69
2022/11/16 12:42:14;;;;;;;;;;;15.30;99.90;;;;;;5088615;28;1130;-69
2022/11/16 12:44:41;;;;;;;;;;;16.10;99.90;;;;;;5088803;28;1175;-69
2022/11/16 12:47:16;;;;;;;;;;;17.00;99.90;;;;;;5089147;28;1108;-68
2022/11/16 12:49:48;;;;;;;;;;;17.80;99.90;;;;;;5087603;28;1669;-69
2022/11/16 12:52:22;;;;;;;;;;;18.50;99.90;;;;;;5060405;28;1930;-68
2022/11/16 12:54:48;;;;;;;;;;;19.20;99.90;;;;;;5088072;28;1144;-69
2022/11/16 12:57:13;;;;;;;;;;;19.40;99.90;;;;;;5088973;28;1166;-69
2022/11/16 12:59:40;;;;;;;;;;;19.70;99.90;;;;;;5097200;28;1117;-69
2022/11/16 13:02:05;;;;;;;;;;;20.30;99.90;;;;;;5089114;28;1111;-70
2022/11/16 13:04:39;;;;;;;;;;;20.90;99.90;;;;;;5092746;28;1203;-69
2022/11/16 13:07:20;;;;;;;;;;;20.90;99.60;;;;;;5093370;28;1235;-69
2022/11/16 13:09:48;;;;;;;;;;;21.10;99.50;;;;;;5096744;28;1259;-69
2022/11/16 13:12:16;;;;;;;;;;;21.20;98.60;;;;;;5079284;28;1993;-69
2022/11/16 13:14:46;;;;;;;;;;;21.30;99.20;;;;;;5081564;28;1104;-69
2022/11/16 13:17:17;;;;;;;;;;;21.40;99.00;;;;;;5092645;28;1198;-69
2022/11/16 13:19:44;;;;;;;;;;;21.50;98.10;;;;;;5089304;28;3290;-70
2022/11/16 13:22:15;;;;;;;;;;;20.60;98.50;;;;;;5096071;28;3330;-69
2022/11/16 13:24:48;;;;;;;;;;;19.60;99.90;;;;;;5078807;28;1085;-69
2022/11/16 13:27:14;;;;;;;;;;;18.80;99.90;;;;;;5069850;28;1180;-69
2022/11/16 13:29:52;;;;;;;;;;;18.40;99.90;;;;;;5071205;28;1085;-69
2022/11/16 13:32:29;;;;;;;;;;;18.30;99.90;;;;;;5088595;28;1914;-69
2022/11/16 13:34:56;;;;;;;;;;;18.30;99.90;;;;;;5087981;28;1128;-69
2022/11/16 13:37:40;;;;;;;;;;;18.00;99.90;;;;;;5089434;28;1089;-69
2022/11/16 13:40:05;;;;;;;;;;;17.50;99.90;;;;;;5065583;28;1087;-69
2022/11/16 13:42:32;;;;;;;;;;;16.90;99.90;;;;;;5061369;28;1268;-69
2022/11/16 13:45:06;;;;;;;;;;;16.60;99.90;;;;;;5097901;28;1104;-69
2022/11/16 13:47:32;;;;;;;;;;;16.30;99.90;;;;;;5073529;28;1198;-69
2022/11/16 13:49:58;;;;;;;;;;;16.90;99.90;;;;;;5093932;28;1443;-69
2022/11/16 13:52:40;;;;;;;;;;;17.80;99.90;;;;;;5099826;28;1906;-69
2022/11/16 13:55:13;;;;;;;;;;;18.00;99.90;;;;;;5100463;28;1192;-69
2022/11/16 13:57:47;;;;;;;;;;;17.60;99.90;;;;;;5098092;28;1163;-69
2022/11/16 14:00:20;;;;;;;;;;;17.10;99.90;;;;;;5092478;28;1084;-69
2022/11/16 14:02:46;;;;;;;;;;;16.60;99.90;;;;;;5091386;28;1077;-69
2022/11/16 14:05:11;;;;;;;;;;;16.10;99.90;;;;;;5092941;28;1155;-69
2022/11/16 14:07:42;;;;;;;;;;;15.60;99.90;;;;;;5092439;28;1092;-69
2022/11/16 14:10:09;;;;;;;;;;;15.20;99.90;;;;;;5073465;28;1158;-69
2022/11/16 14:12:35;;;;;;;;;;;15.20;99.90;;;;;;5092318;28;1973;-68
2022/11/16 14:15:14;;;;;;;;;;;14.60;99.90;;;;;;5091634;28;1183;-69
2022/11/16 14:17:50;;;;;;;;;;;14.40;99.90;;;;;;5097753;28;1300;-69
2022/11/16 14:20:24;;;;;;;;;;;14.20;99.90;;;;;;5073774;28;1010;-69
2022/11/16 14:22:55;;;;;;;;;;;14.00;99.90;;;;;;5091222;28;1577;-69
2022/11/16 14:25:28;;;;;;;;;;;13.90;99.90;;;;;;5091348;28;1135;-68
2022/11/16 14:28:12;;;;;;;;;;;13.80;99.90;;;;;;5074872;28;1123;-68
2022/11/16 14:30:59;;;;;;;;;;;13.90;99.90;;;;;;5091201;28;1156;-68
2022/11/16 14:33:28;;;;;;;;;;;14.20;99.90;;;;;;5073778;28;1180;-69
2022/11/16 14:35:53;;;;;;;;;;;15.00;99.90;;;;;;5076814;28;1177;-68
2022/11/16 14:38:25;;;;;;;;;;;15.90;99.90;;;;;;5101537;28;1255;-68
2022/11/16 14:40:52;;;;;;;;;;;16.70;99.90;;;;;;5099720;28;1246;-69
2022/11/16 14:43:22;;;;;;;;;;;17.40;99.90;;;;;;5090953;28;1169;-69
2022/11/16 14:45:51;;;;;;;;;;;17.80;99.90;;;;;;5081841;28;3676;-69
2022/11/16 14:48:18;;;;;;;;;;;17.90;99.90;;;;;;5070143;28;3624;-69
2022/11/16 14:50:47;;;;;;;;;;;17.80;99.90;;;;;;5090411;28;1906;-69
2022/11/16 14:53:15;;;;;;;;;;;17.80;99.90;;;;;;5079602;28;2673;-69
2022/11/16 14:55:42;;;;;;;;;;;17.90;99.90;;;;;;5072660;28;1172;-69
2022/11/16 14:58:09;;;;;;;;;;;18.00;99.90;;;;;;5090329;28;1277;-70
2022/11/16 15:00:35;;;;;;;;;;;18.00;99.90;;;;;;5082156;28;3540;-69
2022/11/16 15:03:01;;;;;;;;;;;17.90;99.90;;;;;;5089308;28;3583;-69
2022/11/16 15:05:28;;;;;;;;;;;17.80;99.90;;;;;;5090282;28;1100;-70
2022/11/16 15:07:56;;;;;;;;;;;17.70;99.90;;;;;;5083735;28;3624;-69
2022/11/16 15:10:23;;;;;;;;;;;17.50;99.90;;;;;;5078666;28;3649;-69
2022/11/16 15:12:50;;;;;;;;;;;17.20;99.90;;;;;;5081830;28;3562;-69
2022/11/16 15:15:18;;;;;;;;;;;16.90;99.90;;;;;;5069567;28;1093;-69
2022/11/16 15:17:45;;;;;;;;;;;16.60;99.90;;;;;;5090485;28;1257;-69
2022/11/16 15:20:21;;;;;;;;;;;16.20;99.90;;;;;;5098995;28;1339;-69